sensor_id;sensor_type;location;lat;lon;timestamp;temperature;humidity
14993;DHT22;7592;51.088;13.732;2023-07-31T00:02:47;16.40;99.90
14993;DHT22;7592;51.088;13.732;2023-07-31T00:07:40;16.50;99.90
14993;DHT22;7592;51.088;13.732;2023-07-31T00:12:32;16.50;99.90
14993;DHT22;7592;51.088;13.732;2023-07-31T00:17:24;16.50;99.90
14993;DHT22;7592;51.088;13.732;2023-07-31T00:22:16;16.40;99.90
14993;DHT22;7592;51.088;13.732;2023-07-31T00:27:08;16.40;99.90
14993;DHT22;7592;51.088;13.732;2023-07-31T00:32:00;16.40;99.90
14993;DHT22;7592;51.088;13.732;2023-07-31T00:36:52;16.30;99.90
14993;DHT22;7592;51.088;13.732;2023-07-31T00:41:45;16.20;99.90
14993;DHT22;7592;51.088;13.732;2023-07-31T00:46:37;16.20;99.90
14993;DHT22;7592;51.088;13.732;2023-07-31T00:51:29;16.30;99.90
14993;DHT22;7592;51.088;13.732;2023-07-31T00:56:22;16.30;99.90
14993;DHT22;7592;51.088;13.732;2023-07-31T01:01:15;16.40;99.90
14993;DHT22;7592;51.088;13.732;2023-07-31T01:13:10;16.40;99.90
14993;DHT22;7592;51.088;13.732;2023-07-31T01:18:02;16.20;99.90
14993;DHT22;7592;51.088;13.732;2023-07-31T01:23:23;16.10;99.90
14993;DHT22;7592;51.088;13.732;2023-07-31T01:28:24;16.40;99.90
14993;DHT22;7592;51.088;13.732;2023-07-31T01:33:17;16.40;99.90
14993;DHT22;7592;51.088;13.732;2023-07-31T01:38:10;16.20;99.90
14993;DHT22;7592;51.088;13.732;2023-07-31T01:43:02;16.00;99.90
14993;DHT22;7592;51.088;13.732;2023-07-31T01:47:54;16.00;99.90
14993;DHT22;7592;51.088;13.732;2023-07-31T01:52:47;16.10;99.90
14993;DHT22;7592;51.088;13.732;2023-07-31T01:57:40;16.00;99.90
14993;DHT22;7592;51.088;13.732;2023-07-31T02:02:32;16.00;99.90
14993;DHT22;7592;51.088;13.732;2023-07-31T02:07:24;16.10;99.90
14993;DHT22;7592;51.088;13.732;2023-07-31T02:12:17;16.20;99.90
14993;DHT22;7592;51.088;13.732;2023-07-31T02:17:09;16.40;99.90
14993;DHT22;7592;51.088;13.732;2023-07-31T02:22:01;16.60;99.90
14993;DHT22;7592;51.088;13.732;2023-07-31T02:26:53;16.90;99.90
14993;DHT22;7592;51.088;13.732;2023-07-31T02:31:45;17.00;99.90
14993;DHT22;7592;51.088;13.732;2023-07-31T02:36:38;17.00;99.90
14993;DHT22;7592;51.088;13.732;2023-07-31T02:41:30;17.20;99.90
14993;DHT22;7592;51.088;13.732;2023-07-31T02:46:22;17.20;99.90
14993;DHT22;7592;51.088;13.732;2023-07-31T02:51:16;17.20;99.90
14993;DHT22;7592;51.088;13.732;2023-07-31T02:56:09;17.30;99.90
14993;DHT22;7592;51.088;13.732;2023-07-31T03:01:01;17.10;99.90
14993;DHT22;7592;51.088;13.732;2023-07-31T03:05:54;17.00;99.90
14993;DHT22;7592;51.088;13.732;2023-07-31T03:10:46;17.00;99.90
14993;DHT22;7592;51.088;13.732;2023-07-31T03:15:38;17.00;99.90
14993;DHT22;7592;51.088;13.732;2023-07-31T03:20:30;17.10;99.90
14993;DHT22;7592;51.088;13.732;2023-07-31T03:25:22;17.10;99.90
14993;DHT22;7592;51.088;13.732;2023-07-31T03:30:15;17.10;99.90
14993;DHT22;7592;51.088;13.732;2023-07-31T03:35:07;17.30;99.90
14993;DHT22;7592;51.088;13.732;2023-07-31T03:40:02;17.50;99.90
14993;DHT22;7592;51.088;13.732;2023-07-31T03:44:56;17.70;99.90
14993;DHT22;7592;51.088;13.732;2023-07-31T03:49:48;17.70;99.90
14993;DHT22;7592;51.088;13.732;2023-07-31T03:54:40;17.70;99.90
14993;DHT22;7592;51.088;13.732;2023-07-31T03:59:32;17.70;99.90
14993;DHT22;7592;51.088;13.732;2023-07-31T04:04:25;17.60;99.90
14993;DHT22;7592;51.088;13.732;2023-07-31T04:09:17;17.60;99.90
14993;DHT22;7592;51.088;13.732;2023-07-31T04:14:09;17.60;99.90
14993;DHT22;7592;51.088;13.732;2023-07-31T04:19:01;17.60;99.90
14993;DHT22;7592;51.088;13.732;2023-07-31T04:23:54;17.60;99.90
14993;DHT22;7592;51.088;13.732;2023-07-31T04:28:48;17.50;99.90
14993;DHT22;7592;51.088;13.732;2023-07-31T04:33:40;17.50;99.90
14993;DHT22;7592;51.088;13.732;2023-07-31T04:38:32;17.40;99.90
14993;DHT22;7592;51.088;13.732;2023-07-31T04:43:24;17.50;99.90
14993;DHT22;7592;51.088;13.732;2023-07-31T04:48:16;17.60;99.90
14993;DHT22;7592;51.088;13.732;2023-07-31T04:53:09;17.50;99.90
14993;DHT22;7592;51.088;13.732;2023-07-31T04:58:01;17.60;99.90
14993;DHT22;7592;51.088;13.732;2023-07-31T05:02:53;17.50;99.90
14993;DHT22;7592;51.088;13.732;2023-07-31T05:07:46;17.50;99.90
14993;DHT22;7592;51.088;13.732;2023-07-31T05:12:38;17.50;99.90
14993;DHT22;7592;51.088;13.732;2023-07-31T05:17:30;17.50;99.90
14993;DHT22;7592;51.088;13.732;2023-07-31T05:22:22;17.60;99.90
14993;DHT22;7592;51.088;13.732;2023-07-31T05:27:14;17.70;99.90
14993;DHT22;7592;51.088;13.732;2023-07-31T05:32:10;17.70;99.90
14993;DHT22;7592;51.088;13.732;2023-07-31T05:37:04;17.70;99.90
14993;DHT22;7592;51.088;13.732;2023-07-31T05:41:56;17.80;99.90
14993;DHT22;7592;51.088;13.732;2023-07-31T05:46:48;17.80;99.90
14993;DHT22;7592;51.088;13.732;2023-07-31T05:51:40;17.90;99.90
14993;DHT22;7592;51.088;13.732;2023-07-31T05:56:32;18.00;99.90
14993;DHT22;7592;51.088;13.732;2023-07-31T06:01:26;18.10;99.90
14993;DHT22;7592;51.088;13.732;2023-07-31T06:06:18;18.10;99.90
14993;DHT22;7592;51.088;13.732;2023-07-31T06:11:11;18.10;99.90
14993;DHT22;7592;51.088;13.732;2023-07-31T06:16:03;18.10;99.90
14993;DHT22;7592;51.088;13.732;2023-07-31T06:20:58;18.10;99.90
14993;DHT22;7592;51.088;13.732;2023-07-31T06:25:50;18.20;99.90
14993;DHT22;7592;51.088;13.732;2023-07-31T06:30:42;18.10;99.90
14993;DHT22;7592;51.088;13.732;2023-07-31T06:35:34;18.30;99.90
14993;DHT22;7592;51.088;13.732;2023-07-31T06:40:26;18.40;99.90
14993;DHT22;7592;51.088;13.732;2023-07-31T06:45:18;18.50;99.90
14993;DHT22;7592;51.088;13.732;2023-07-31T06:50:11;18.50;99.90
14993;DHT22;7592;51.088;13.732;2023-07-31T06:55:19;18.70;99.90
14993;DHT22;7592;51.088;13.732;2023-07-31T07:00:12;18.80;99.90
14993;DHT22;7592;51.088;13.732;2023-07-31T07:05:05;19.10;99.90
14993;DHT22;7592;51.088;13.732;2023-07-31T07:09:58;19.30;99.90
14993;DHT22;7592;51.088;13.732;2023-07-31T07:14:53;19.30;99.90
14993;DHT22;7592;51.088;13.732;2023-07-31T07:19:45;19.40;99.90
14993;DHT22;7592;51.088;13.732;2023-07-31T07:24:39;19.60;99.90
14993;DHT22;7592;51.088;13.732;2023-07-31T07:29:31;19.70;99.90
14993;DHT22;7592;51.088;13.732;2023-07-31T07:34:28;20.20;99.90
14993;DHT22;7592;51.088;13.732;2023-07-31T07:39:20;20.70;99.90
14993;DHT22;7592;51.088;13.732;2023-07-31T07:44:13;21.10;99.90
14993;DHT22;7592;51.088;13.732;2023-07-31T07:49:06;21.60;99.90
14993;DHT22;7592;51.088;13.732;2023-07-31T07:53:58;21.40;99.90
14993;DHT22;7592;51.088;13.732;2023-07-31T07:58:50;21.20;99.90
14993;DHT22;7592;51.088;13.732;2023-07-31T08:03:42;21.10;99.90
14993;DHT22;7592;51.088;13.732;2023-07-31T08:08:35;20.90;99.90
14993;DHT22;7592;51.088;13.732;2023-07-31T08:13:28;20.80;99.90
14993;DHT22;7592;51.088;13.732;2023-07-31T08:18:20;21.00;99.90
14993;DHT22;7592;51.088;13.732;2023-07-31T08:23:12;21.50;99.90
14993;DHT22;7592;51.088;13.732;2023-07-31T08:28:05;21.80;99.90
14993;DHT22;7592;51.088;13.732;2023-07-31T08:32:57;21.70;99.90
14993;DHT22;7592;51.088;13.732;2023-07-31T08:37:49;21.80;99.90
14993;DHT22;7592;51.088;13.732;2023-07-31T08:42:46;21.80;99.90
14993;DHT22;7592;51.088;13.732;2023-07-31T08:47:38;21.60;99.90
14993;DHT22;7592;51.088;13.732;2023-07-31T08:52:30;21.30;99.90
14993;DHT22;7592;51.088;13.732;2023-07-31T08:57:23;21.20;99.90
14993;DHT22;7592;51.088;13.732;2023-07-31T09:02:17;21.20;99.90
14993;DHT22;7592;51.088;13.732;2023-07-31T09:07:11;21.10;99.90
14993;DHT22;7592;51.088;13.732;2023-07-31T09:12:05;21.10;99.90
14993;DHT22;7592;51.088;13.732;2023-07-31T09:16:58;21.00;99.90
14993;DHT22;7592;51.088;13.732;2023-07-31T09:21:52;21.00;99.90
14993;DHT22;7592;51.088;13.732;2023-07-31T09:26:44;20.90;99.90
14993;DHT22;7592;51.088;13.732;2023-07-31T09:31:41;20.80;99.90
14993;DHT22;7592;51.088;13.732;2023-07-31T09:36:40;21.00;99.90
14993;DHT22;7592;51.088;13.732;2023-07-31T09:41:37;21.10;99.90
14993;DHT22;7592;51.088;13.732;2023-07-31T09:46:30;21.30;99.90
14993;DHT22;7592;51.088;13.732;2023-07-31T09:51:28;21.40;99.90
14993;DHT22;7592;51.088;13.732;2023-07-31T09:56:23;21.30;99.90
14993;DHT22;7592;51.088;13.732;2023-07-31T10:01:16;21.40;99.90
14993;DHT22;7592;51.088;13.732;2023-07-31T10:06:09;21.60;99.90
14993;DHT22;7592;51.088;13.732;2023-07-31T10:11:02;21.80;99.90
14993;DHT22;7592;51.088;13.732;2023-07-31T10:15:59;21.80;99.90
14993;DHT22;7592;51.088;13.732;2023-07-31T10:20:54;21.70;99.90
14993;DHT22;7592;51.088;13.732;2023-07-31T10:25:48;21.70;99.90
14993;DHT22;7592;51.088;13.732;2023-07-31T10:30:42;21.90;99.90
14993;DHT22;7592;51.088;13.732;2023-07-31T10:35:34;22.10;99.90
14993;DHT22;7592;51.088;13.732;2023-07-31T10:40:27;22.20;99.90
14993;DHT22;7592;51.088;13.732;2023-07-31T10:45:39;22.10;99.90
14993;DHT22;7592;51.088;13.732;2023-07-31T10:50:38;22.50;99.90
14993;DHT22;7592;51.088;13.732;2023-07-31T10:55:42;22.90;99.90
14993;DHT22;7592;51.088;13.732;2023-07-31T11:00:37;22.90;99.90
14993;DHT22;7592;51.088;13.732;2023-07-31T11:05:49;23.00;99.90
14993;DHT22;7592;51.088;13.732;2023-07-31T11:10:43;23.00;99.90
14993;DHT22;7592;51.088;13.732;2023-07-31T11:15:35;23.20;99.90
14993;DHT22;7592;51.088;13.732;2023-07-31T11:20:30;23.50;99.90
14993;DHT22;7592;51.088;13.732;2023-07-31T11:25:22;23.50;99.90
14993;DHT22;7592;51.088;13.732;2023-07-31T11:30:14;23.40;99.90
14993;DHT22;7592;51.088;13.732;2023-07-31T11:35:07;23.10;99.90
14993;DHT22;7592;51.088;13.732;2023-07-31T11:40:00;23.20;99.90
14993;DHT22;7592;51.088;13.732;2023-07-31T11:44:53;23.50;99.90
14993;DHT22;7592;51.088;13.732;2023-07-31T11:49:45;23.90;99.90
14993;DHT22;7592;51.088;13.732;2023-07-31T11:54:37;24.60;99.90
14993;DHT22;7592;51.088;13.732;2023-07-31T11:59:30;25.20;99.90
14993;DHT22;7592;51.088;13.732;2023-07-31T12:04:24;25.40;99.90
14993;DHT22;7592;51.088;13.732;2023-07-31T12:09:16;25.50;99.90
14993;DHT22;7592;51.088;13.732;2023-07-31T12:14:08;25.50;99.90
14993;DHT22;7592;51.088;13.732;2023-07-31T12:19:10;26.20;99.90
14993;DHT22;7592;51.088;13.732;2023-07-31T12:24:03;26.40;99.90
14993;DHT22;7592;51.088;13.732;2023-07-31T12:28:56;26.80;99.90
14993;DHT22;7592;51.088;13.732;2023-07-31T12:33:50;26.90;99.90
14993;DHT22;7592;51.088;13.732;2023-07-31T12:38:43;26.90;99.90
14993;DHT22;7592;51.088;13.732;2023-07-31T12:43:37;27.10;99.90
14993;DHT22;7592;51.088;13.732;2023-07-31T12:48:29;26.40;99.90
14993;DHT22;7592;51.088;13.732;2023-07-31T12:53:21;26.40;99.90
14993;DHT22;7592;51.088;13.732;2023-07-31T12:58:13;26.20;99.90
14993;DHT22;7592;51.088;13.732;2023-07-31T13:03:06;26.20;99.90
14993;DHT22;7592;51.088;13.732;2023-07-31T13:07:58;26.60;99.90
14993;DHT22;7592;51.088;13.732;2023-07-31T13:12:50;26.70;99.90
14993;DHT22;7592;51.088;13.732;2023-07-31T13:17:42;26.80;99.90
14993;DHT22;7592;51.088;13.732;2023-07-31T13:22:34;26.50;99.90
14993;DHT22;7592;51.088;13.732;2023-07-31T13:27:26;26.10;99.90
14993;DHT22;7592;51.088;13.732;2023-07-31T13:32:19;25.80;99.90
14993;DHT22;7592;51.088;13.732;2023-07-31T13:37:11;25.50;99.90
14993;DHT22;7592;51.088;13.732;2023-07-31T13:42:04;25.80;99.90
14993;DHT22;7592;51.088;13.732;2023-07-31T13:47:00;26.30;99.90
14993;DHT22;7592;51.088;13.732;2023-07-31T13:51:52;26.70;98.60
14993;DHT22;7592;51.088;13.732;2023-07-31T13:56:44;26.70;97.80
14993;DHT22;7592;51.088;13.732;2023-07-31T14:01:37;26.50;97.40
14993;DHT22;7592;51.088;13.732;2023-07-31T14:06:29;26.30;98.90
14993;DHT22;7592;51.088;13.732;2023-07-31T14:11:22;26.30;97.40
14993;DHT22;7592;51.088;13.732;2023-07-31T14:16:14;26.40;97.60
14993;DHT22;7592;51.088;13.732;2023-07-31T14:21:06;26.70;97.20
14993;DHT22;7592;51.088;13.732;2023-07-31T14:25:58;26.40;98.10
14993;DHT22;7592;51.088;13.732;2023-07-31T14:30:50;26.20;97.90
14993;DHT22;7592;51.088;13.732;2023-07-31T14:35:43;26.00;96.90
14993;DHT22;7592;51.088;13.732;2023-07-31T14:40:35;26.10;97.60
14993;DHT22;7592;51.088;13.732;2023-07-31T14:45:28;26.50;97.10
14993;DHT22;7592;51.088;13.732;2023-07-31T14:50:20;26.00;97.60
14993;DHT22;7592;51.088;13.732;2023-07-31T14:55:13;25.70;99.20
14993;DHT22;7592;51.088;13.732;2023-07-31T15:00:06;25.50;98.20
14993;DHT22;7592;51.088;13.732;2023-07-31T15:05:01;25.30;98.80
14993;DHT22;7592;51.088;13.732;2023-07-31T15:09:53;25.80;99.50
14993;DHT22;7592;51.088;13.732;2023-07-31T15:14:45;26.10;98.50
14993;DHT22;7592;51.088;13.732;2023-07-31T15:19:37;25.80;97.70
14993;DHT22;7592;51.088;13.732;2023-07-31T15:24:29;25.50;99.20
14993;DHT22;7592;51.088;13.732;2023-07-31T15:29:21;25.10;99.40
14993;DHT22;7592;51.088;13.732;2023-07-31T15:34:14;25.20;99.90
14993;DHT22;7592;51.088;13.732;2023-07-31T15:39:06;25.40;99.80
14993;DHT22;7592;51.088;13.732;2023-07-31T15:44:00;25.40;99.90
14993;DHT22;7592;51.088;13.732;2023-07-31T15:48:53;25.10;99.90
14993;DHT22;7592;51.088;13.732;2023-07-31T15:53:48;24.80;99.90
14993;DHT22;7592;51.088;13.732;2023-07-31T15:58:40;24.80;99.90
14993;DHT22;7592;51.088;13.732;2023-07-31T16:03:32;24.60;99.90
14993;DHT22;7592;51.088;13.732;2023-07-31T16:08:24;24.20;99.90
14993;DHT22;7592;51.088;13.732;2023-07-31T16:13:16;24.00;99.90
14993;DHT22;7592;51.088;13.732;2023-07-31T16:18:09;23.90;99.90
14993;DHT22;7592;51.088;13.732;2023-07-31T16:23:01;23.80;99.90
14993;DHT22;7592;51.088;13.732;2023-07-31T16:27:53;23.80;99.90
14993;DHT22;7592;51.088;13.732;2023-07-31T16:32:49;23.80;99.90
14993;DHT22;7592;51.088;13.732;2023-07-31T16:37:42;23.70;99.90
14993;DHT22;7592;51.088;13.732;2023-07-31T16:42:35;23.70;99.90
14993;DHT22;7592;51.088;13.732;2023-07-31T16:47:28;23.60;99.90
14993;DHT22;7592;51.088;13.732;2023-07-31T16:52:20;23.80;99.90
14993;DHT22;7592;51.088;13.732;2023-07-31T16:57:12;23.70;99.90
14993;DHT22;7592;51.088;13.732;2023-07-31T17:02:05;23.60;99.90
14993;DHT22;7592;51.088;13.732;2023-07-31T17:06:57;23.40;99.90
14993;DHT22;7592;51.088;13.732;2023-07-31T17:11:51;23.30;99.90
14993;DHT22;7592;51.088;13.732;2023-07-31T17:16:43;23.30;99.90
14993;DHT22;7592;51.088;13.732;2023-07-31T17:21:35;23.10;99.90
14993;DHT22;7592;51.088;13.732;2023-07-31T17:26:29;23.00;99.90
14993;DHT22;7592;51.088;13.732;2023-07-31T17:31:21;22.90;99.90
14993;DHT22;7592;51.088;13.732;2023-07-31T17:36:13;22.90;99.90
14993;DHT22;7592;51.088;13.732;2023-07-31T17:41:05;22.90;99.90
14993;DHT22;7592;51.088;13.732;2023-07-31T17:45:57;23.00;99.90
14993;DHT22;7592;51.088;13.732;2023-07-31T17:50:53;22.90;99.90
14993;DHT22;7592;51.088;13.732;2023-07-31T17:55:45;22.90;99.90
14993;DHT22;7592;51.088;13.732;2023-07-31T18:00:37;22.90;99.90
14993;DHT22;7592;51.088;13.732;2023-07-31T18:05:29;22.90;99.90
14993;DHT22;7592;51.088;13.732;2023-07-31T18:10:21;22.90;99.90
14993;DHT22;7592;51.088;13.732;2023-07-31T18:15:13;22.80;99.90
14993;DHT22;7592;51.088;13.732;2023-07-31T18:20:06;22.70;99.90
14993;DHT22;7592;51.088;13.732;2023-07-31T18:25:01;22.80;99.90
14993;DHT22;7592;51.088;13.732;2023-07-31T18:29:53;22.70;99.90
14993;DHT22;7592;51.088;13.732;2023-07-31T18:34:45;22.60;99.90
14993;DHT22;7592;51.088;13.732;2023-07-31T18:39:40;22.60;99.90
14993;DHT22;7592;51.088;13.732;2023-07-31T18:44:32;22.50;99.90
14993;DHT22;7592;51.088;13.732;2023-07-31T18:49:24;22.50;99.90
14993;DHT22;7592;51.088;13.732;2023-07-31T18:54:16;22.50;99.90
14993;DHT22;7592;51.088;13.732;2023-07-31T18:59:09;22.40;99.90
14993;DHT22;7592;51.088;13.732;2023-07-31T19:04:01;22.40;99.90
14993;DHT22;7592;51.088;13.732;2023-07-31T19:08:54;22.30;99.90
14993;DHT22;7592;51.088;13.732;2023-07-31T19:13:46;22.30;99.90
14993;DHT22;7592;51.088;13.732;2023-07-31T19:18:39;22.30;99.90
14993;DHT22;7592;51.088;13.732;2023-07-31T19:23:31;22.30;99.90
14993;DHT22;7592;51.088;13.732;2023-07-31T19:28:23;22.20;99.90
14993;DHT22;7592;51.088;13.732;2023-07-31T19:33:15;22.20;99.90
14993;DHT22;7592;51.088;13.732;2023-07-31T19:38:07;22.10;99.90
14993;DHT22;7592;51.088;13.732;2023-07-31T19:42:59;22.10;99.90
14993;DHT22;7592;51.088;13.732;2023-07-31T19:47:51;22.10;99.90
14993;DHT22;7592;51.088;13.732;2023-07-31T19:52:44;22.10;99.90
14993;DHT22;7592;51.088;13.732;2023-07-31T19:57:36;22.00;99.90
14993;DHT22;7592;51.088;13.732;2023-07-31T20:02:28;22.00;99.90
14993;DHT22;7592;51.088;13.732;2023-07-31T20:07:23;21.90;99.90
14993;DHT22;7592;51.088;13.732;2023-07-31T20:12:15;21.80;99.90
14993;DHT22;7592;51.088;13.732;2023-07-31T20:17:07;21.70;99.90
14993;DHT22;7592;51.088;13.732;2023-07-31T20:21:59;21.60;99.90
14993;DHT22;7592;51.088;13.732;2023-07-31T20:26:51;21.60;99.90
14993;DHT22;7592;51.088;13.732;2023-07-31T20:31:43;21.50;99.90
14993;DHT22;7592;51.088;13.732;2023-07-31T20:36:37;21.40;99.90
14993;DHT22;7592;51.088;13.732;2023-07-31T20:41:33;21.40;99.90
14993;DHT22;7592;51.088;13.732;2023-07-31T20:46:25;21.40;99.90
14993;DHT22;7592;51.088;13.732;2023-07-31T20:51:17;21.30;99.90
14993;DHT22;7592;51.088;13.732;2023-07-31T20:56:09;21.40;99.90
14993;DHT22;7592;51.088;13.732;2023-07-31T21:01:01;21.50;99.90
14993;DHT22;7592;51.088;13.732;2023-07-31T21:05:54;21.50;99.90
14993;DHT22;7592;51.088;13.732;2023-07-31T21:10:50;21.50;99.90
14993;DHT22;7592;51.088;13.732;2023-07-31T21:15:44;21.50;99.90
14993;DHT22;7592;51.088;13.732;2023-07-31T21:20:37;21.50;99.90
14993;DHT22;7592;51.088;13.732;2023-07-31T21:25:32;21.50;99.90
14993;DHT22;7592;51.088;13.732;2023-07-31T21:30:24;21.40;99.90
14993;DHT22;7592;51.088;13.732;2023-07-31T21:35:16;21.50;99.90
14993;DHT22;7592;51.088;13.732;2023-07-31T21:40:08;21.40;99.90
14993;DHT22;7592;51.088;13.732;2023-07-31T21:45:01;21.40;99.90
14993;DHT22;7592;51.088;13.732;2023-07-31T21:49:53;21.30;99.90
14993;DHT22;7592;51.088;13.732;2023-07-31T21:54:45;21.30;99.90
14993;DHT22;7592;51.088;13.732;2023-07-31T21:59:37;21.30;99.90
14993;DHT22;7592;51.088;13.732;2023-07-31T22:04:32;21.30;99.90
14993;DHT22;7592;51.088;13.732;2023-07-31T22:09:24;21.30;99.90
14993;DHT22;7592;51.088;13.732;2023-07-31T22:14:16;21.30;99.90
14993;DHT22;7592;51.088;13.732;2023-07-31T22:19:08;21.30;99.90
14993;DHT22;7592;51.088;13.732;2023-07-31T22:24:01;21.30;99.90
14993;DHT22;7592;51.088;13.732;2023-07-31T22:28:53;21.20;99.90
14993;DHT22;7592;51.088;13.732;2023-07-31T22:33:45;21.30;99.90
14993;DHT22;7592;51.088;13.732;2023-07-31T22:38:37;21.30;99.90
14993;DHT22;7592;51.088;13.732;2023-07-31T22:43:29;21.30;99.90
14993;DHT22;7592;51.088;13.732;2023-07-31T22:48:22;21.40;99.90
14993;DHT22;7592;51.088;13.732;2023-07-31T22:53:14;21.30;99.90
14993;DHT22;7592;51.088;13.732;2023-07-31T22:58:06;21.40;99.90
14993;DHT22;7592;51.088;13.732;2023-07-31T23:02:58;21.30;99.90
14993;DHT22;7592;51.088;13.732;2023-07-31T23:07:50;21.30;99.90
14993;DHT22;7592;51.088;13.732;2023-07-31T23:12:42;21.20;99.90
14993;DHT22;7592;51.088;13.732;2023-07-31T23:17:34;21.20;99.90
14993;DHT22;7592;51.088;13.732;2023-07-31T23:22:26;21.10;99.90
14993;DHT22;7592;51.088;13.732;2023-07-31T23:27:19;21.10;99.90
14993;DHT22;7592;51.088;13.732;2023-07-31T23:32:11;20.90;99.90
14993;DHT22;7592;51.088;13.732;2023-07-31T23:37:03;20.70;99.90
14993;DHT22;7592;51.088;13.732;2023-07-31T23:41:55;20.60;99.90
14993;DHT22;7592;51.088;13.732;2023-07-31T23:46:47;20.50;99.90
14993;DHT22;7592;51.088;13.732;2023-07-31T23:51:40;20.60;99.90
14993;DHT22;7592;51.088;13.732;2023-07-31T23:56:33;20.50;99.90
